Accueil
METAR-TAF:

METAR-TAF

Aéroports :

Zahedan, Iran

latitude: 29-28N, longitude: 060-53E, altitude: 1370 m

Observation

Le bulletin a été fait il y a 58 minutes, à 12:00 UTC
Vent 10 kt de nord/nord-est
Température 21°C
Humidité 25%
Pression 1015 hPa
Visibilité 10 km ou plus
pas de nuages en-dessous de 1500 mètres et pas de cumulonimbus.

METAR: OIZH 291200Z 02010KT CAVOK 21/00 Q1015 A2998 NOSIG

Heure: 16:28 (12:58 UTC)

Prévision

Le bulletin a été fait il y a 1 heure et 58 minutes, à 11:00 UTC
Prévision valable du 29 à 12 UTC au 01 à 18 UTC
Vent 8 kt de nord/nord-est
Visibilité: 7000 m

TAF: OIZH 291100Z 2912/0118 03008KT 7000 NSC

Observations et prévisions météorologiques de plus de 4000 aéroports (messages METAR et TAF).

Les stations disponibles sont représentées par des disques jaunes et rouges sur la carte.

Passer la souris dessus pour voir le nom de la station.

Cliquer dessus pour voir les observations et prévisions météorologiques.

Pour changer de carte: cliquez sur les boutons verts avec une croix noire pour zoomer, sur le bouton vert avec un tiret pour effectuer un zoom arrière, ou sur les flèches vertes pour les cartes adjacentes.


METAR-TAF: